Terminal Aerodrome Forecast
Issued by NWS

Home | Current Version | Previous Version | Text Only | Print | Product List | Glossary On
Versions: 1 2 3 4 5 6 7 8 9 10 11 12 13
784
FTUS44 KTSA 031627 AAA
TAFRVS
TAF AMD
KRVS 031627Z 0316/0412 09005KT P6SM OVC040
      TEMPO 0317/0321 10005KT 5SM -RA BKN025
     FM032100 09006KT 4SM -RA BR OVC012
     FM040000 10005KT 2SM -RA BR OVC007=

USA.gov is the U.S. government's official web portal to all federal, state and local government web resources and services.